Time;durP1;ratioP1;P1;durP2;ratioP2;P2;SDS_P1;SDS_P2;PMS_P1;PMS_P2;Temp;Humidity;BMP_temperature;BMP_pressure;BME280_temperature;BME280_humidity;BME280_pressure;Samples;Min_cycle;Max_cycle;Signal;HPM_P1;HPM_P2
2023/02/16 00:00:45;;;;;;;25.60;13.57;;;;;;;2.15;100.00;101698.00;4880393;29;20933;-79
2023/02/16 00:03:18;;;;;;;26.42;14.48;;;;;;;2.18;100.00;101696.34;4871067;29;20542;-80
2023/02/16 00:05:45;;;;;;;23.13;13.07;;;;;;;2.16;100.00;101693.72;4904478;29;20064;-77
2023/02/16 00:08:11;;;;;;;30.40;14.60;;;;;;;2.13;100.00;101693.59;4870571;29;20044;-78
2023/02/16 00:10:39;;;;;;;22.55;13.95;;;;;;;2.14;100.00;101703.09;4881833;29;20044;-78
2023/02/16 00:13:46;;;;;;;20.65;11.68;;;;;;;2.12;100.00;101690.09;4871486;29;20044;-85
2023/02/16 00:16:19;;;;;;;26.25;14.07;;;;;;;2.12;100.00;101691.81;4887959;29;20043;-77
2023/02/16 00:18:47;;;;;;;25.85;14.00;;;;;;;2.12;100.00;101681.47;4897422;29;20052;-78
2023/02/16 00:21:15;;;;;;;23.65;13.68;;;;;;;2.13;100.00;101686.72;4883679;29;20772;-77
2023/02/16 00:23:42;;;;;;;29.83;15.02;;;;;;;2.10;100.00;101681.44;4885354;29;20036;-81
2023/02/16 00:26:20;;;;;;;23.48;12.52;;;;;;;2.11;100.00;101678.03;4883921;29;20079;-81
2023/02/16 00:28:54;;;;;;;26.98;13.02;;;;;;;2.13;100.00;101670.34;4896436;29;20578;-78
2023/02/16 00:31:25;;;;;;;28.00;15.00;;;;;;;2.18;100.00;101667.94;4888385;29;20052;-78
2023/02/16 00:33:52;;;;;;;26.23;14.02;;;;;;;2.19;100.00;101661.94;4870640;29;20629;-78
2023/02/16 00:36:19;;;;;;;21.00;13.63;;;;;;;2.19;100.00;101669.69;4871918;29;20055;-78
2023/02/16 00:38:45;;;;;;;32.38;15.30;;;;;;;2.15;100.00;101674.75;4881590;29;20052;-77
2023/02/16 00:44:20;;;;;;;27.63;13.63;;;;;;;2.20;100.00;101667.19;4905716;29;20071;-86
2023/02/16 00:46:47;;;;;;;22.70;13.95;;;;;;;2.20;100.00;101674.94;4886205;29;20051;-77
2023/02/16 00:49:16;;;;;;;27.27;15.07;;;;;;;2.17;100.00;101674.81;4882814;29;20039;-79
2023/02/16 00:51:43;;;;;;;23.40;14.18;;;;;;;2.11;100.00;101670.28;4886720;29;20395;-81
2023/02/16 00:54:10;;;;;;;25.83;14.38;;;;;;;2.07;100.00;101665.78;4885448;29;20048;-78
2023/02/16 00:56:37;;;;;;;27.52;14.98;;;;;;;2.06;100.00;101674.38;4886815;29;21365;-82
2023/02/16 00:59:08;;;;;;;28.05;15.93;;;;;;;2.05;100.00;101669.16;4878515;29;20071;-80
2023/02/16 01:01:39;;;;;;;26.80;15.10;;;;;;;2.02;100.00;101669.00;4887893;29;20275;-79
2023/02/16 01:04:16;;;;;;;26.67;15.43;;;;;;;1.98;100.00;101666.28;4887304;29;20066;-84
2023/02/16 01:12:19;;;;;;;26.95;14.07;;;;;;;1.97;100.00;101673.97;4887636;29;20044;-78
2023/02/16 01:14:51;;;;;;;26.13;15.05;;;;;;;2.01;100.00;101662.06;4885012;29;20048;-80
2023/02/16 01:17:18;;;;;;;25.70;14.07;;;;;;;2.03;100.00;101661.31;4867176;29;20124;-80
2023/02/16 01:19:45;;;;;;;30.15;15.65;;;;;;;2.04;100.00;101657.91;4877257;29;20052;-85
2023/02/16 01:22:11;;;;;;;30.30;15.25;;;;;;;2.03;100.00;101652.69;4896988;29;20495;-82
2023/02/16 01:24:38;;;;;;;31.45;15.52;;;;;;;2.04;100.00;101655.34;4884458;29;20096;-81
2023/02/16 01:27:04;;;;;;;32.15;17.88;;;;;;;2.06;100.00;101650.22;4882156;29;20134;-78
2023/02/16 01:29:31;;;;;;;29.50;14.52;;;;;;;2.05;100.00;101651.06;4892044;29;20551;-78
2023/02/16 01:31:57;;;;;;;32.42;16.52;;;;;;;2.06;100.00;101648.53;4882019;29;20071;-78
2023/02/16 01:34:24;;;;;;;29.02;14.90;;;;;;;2.03;100.00;101652.69;4887707;29;20054;-81
2023/02/16 01:36:51;;;;;;;28.23;16.85;;;;;;;1.97;100.00;101649.03;4884432;29;20036;-83
2023/02/16 01:39:20;;;;;;;28.77;15.70;;;;;;;1.92;100.00;101653.13;4865732;29;20056;-77
2023/02/16 01:42:05;;;;;;;30.48;15.65;;;;;;;1.89;100.00;101658.16;4902383;29;20056;-78
2023/02/16 01:44:55;;;;;;;29.02;15.98;;;;;;;1.85;100.00;101650.19;4897323;29;20051;-80
2023/02/16 01:47:47;;;;;;;34.38;16.95;;;;;;;1.76;100.00;101648.09;4885438;29;20057;-77
2023/02/16 01:50:30;;;;;;;30.33;17.58;;;;;;;1.68;100.00;101641.72;4884859;29;20041;-76
2023/02/16 01:53:04;;;;;;;37.65;17.75;;;;;;;1.59;100.00;101644.78;4903348;29;20115;-82
2023/02/16 01:55:38;;;;;;;29.40;15.73;;;;;;;1.53;100.00;101649.72;4886594;29;20139;-79
2023/02/16 01:58:16;;;;;;;;;;;;;;;1.45;100.00;101641.63;4898330;29;20813;-82
2023/02/16 02:00:49;;;;;;;29.10;16.45;;;;;;;1.38;100.00;101637.88;4883599;29;19951;-79
2023/02/16 02:06:10;;;;;;;34.72;18.15;;;;;;;1.28;100.00;101628.84;4889786;29;20424;-86
2023/02/16 02:08:53;;;;;;;34.45;18.85;;;;;;;1.25;100.00;101625.25;4898053;29;20047;-84
2023/02/16 02:11:40;;;;;;;33.22;18.08;;;;;;;1.19;100.00;101628.44;4889201;29;20055;-77
2023/02/16 02:14:17;;;;;;;39.10;19.42;;;;;;;1.14;100.00;101635.09;4900705;29;20860;-82
2023/02/16 02:17:00;;;;;;;35.17;17.85;;;;;;;1.09;100.00;101626.25;4883469;29;20051;-76
2023/02/16 02:19:27;;;;;;;35.75;19.00;;;;;;;1.08;100.00;101621.91;4884233;29;20048;-79
2023/02/16 02:25:24;;;;;;;36.10;18.27;;;;;;;1.04;100.00;101613.13;4897904;29;20036;-80
2023/02/16 02:27:59;;;;;;;35.10;17.98;;;;;;;1.03;100.00;101623.38;4897276;29;20049;-78
2023/02/16 02:30:48;;;;;;;43.17;19.10;;;;;;;1.01;100.00;101625.03;4902111;29;20048;-76
2023/02/16 02:33:38;;;;;;;36.33;18.67;;;;;;;0.96;100.00;101624.81;4885398;29;20659;-79
2023/02/16 02:36:46;;;;;;;36.97;18.67;;;;;;;0.89;100.00;101621.06;4887665;29;20044;-82
2023/02/16 02:39:53;;;;;;;36.40;18.75;;;;;;;0.87;100.00;101620.09;4897838;29;20172;-78
2023/02/16 02:42:41;;;;;;;31.48;17.95;;;;;;;0.84;100.00;101625.13;4900601;29;20040;-81
2023/02/16 02:45:18;;;;;;;33.88;19.27;;;;;;;0.83;100.00;101623.34;4887431;29;20063;-77
2023/02/16 02:47:47;;;;;;;37.47;19.15;;;;;;;0.82;100.00;101625.06;4889461;29;20040;-84
2023/02/16 02:53:47;;;;;;;33.17;18.05;;;;;;;0.76;100.00;101623.91;4829399;29;20405;-81
2023/02/16 03:01:58;;;;;;;35.03;19.92;;;;;;;0.84;100.00;101634.56;4884448;29;20044;-79
2023/02/16 03:04:56;;;;;;;43.28;21.25;;;;;;;0.85;100.00;101628.56;4898674;29;20215;-85
2023/02/16 03:13:57;;;;;;;39.47;20.08;;;;;;;0.83;100.00;101625.94;4893913;29;20055;-80
2023/02/16 03:16:35;;;;;;;41.92;21.88;;;;;;;0.86;100.00;101627.78;4897696;29;20132;-79
2023/02/16 03:31:25;;;;;;;41.70;23.10;;;;;;;0.93;100.00;101616.94;4877033;29;20068;-79
2023/02/16 03:33:53;;;;;;;40.55;21.20;;;;;;;0.98;100.00;101620.63;4879091;29;20048;-85
2023/02/16 03:36:27;;;;;;;41.67;21.63;;;;;;;0.96;100.00;101619.66;4895359;29;20111;-83
2023/02/16 03:38:55;;;;;;;45.95;21.70;;;;;;;0.95;100.00;101621.34;4869951;29;20289;-77
2023/02/16 03:41:25;;;;;;;35.85;20.02;;;;;;;0.94;100.00;101617.00;4864738;29;20053;-78
2023/02/16 03:43:57;;;;;;;39.10;22.10;;;;;;;0.94;100.00;101618.69;4879887;29;20152;-82
2023/02/16 03:46:30;;;;;;;38.42;19.77;;;;;;;0.92;100.00;101616.03;4879336;29;20163;-78
2023/02/16 03:49:23;;;;;;;46.53;23.38;;;;;;;0.91;100.00;101618.56;4860229;29;20048;-77
2023/02/16 03:51:59;;;;;;;39.05;21.70;;;;;;;0.88;100.00;101610.69;4878897;29;20052;-79
2023/02/16 03:54:29;;;;;;;44.45;23.63;;;;;;;0.88;100.00;101613.28;4895767;29;20048;-82
2023/02/16 03:56:58;;;;;;;39.03;20.35;;;;;;;0.87;100.00;101604.63;4876120;29;20060;-82
2023/02/16 03:59:25;;;;;;;36.28;20.70;;;;;;;0.79;100.00;101604.28;4875153;29;20053;-82
2023/02/16 04:02:01;;;;;;;41.95;21.73;;;;;;;0.78;100.00;101596.47;4878231;29;20068;-82
2023/02/16 04:04:34;;;;;;;43.95;23.58;;;;;;;0.74;100.00;101602.31;4897320;29;20055;-82
2023/02/16 04:07:06;;;;;;;47.03;22.45;;;;;;;0.74;100.00;101590.28;4899171;29;20144;-79
2023/02/16 04:09:33;;;;;;;44.85;23.42;;;;;;;0.75;100.00;101593.78;4880182;29;20670;-78
2023/02/16 04:14:46;;;;;;;46.65;23.67;;;;;;;0.73;100.00;101595.38;4883612;29;20276;-83
2023/02/16 04:17:13;;;;;;;48.95;25.40;;;;;;;0.73;100.00;101590.22;4880827;29;21216;-79
2023/02/16 04:19:40;;;;;;;48.88;22.45;;;;;;;0.72;100.00;101601.34;4876609;29;20194;-79
2023/02/16 04:22:18;;;;;;;47.70;25.00;;;;;;;0.78;100.00;101597.38;4897040;29;20044;-79
2023/02/16 04:24:46;;;;;;;41.15;22.85;;;;;;;0.78;100.00;101601.63;4894355;29;20044;-76
2023/02/16 04:27:13;;;;;;;48.63;22.42;;;;;;;0.72;100.00;101597.09;4892263;29;20487;-77
2023/02/16 04:29:45;;;;;;;43.13;23.65;;;;;;;0.70;100.00;101603.84;4876588;29;20048;-82
2023/02/16 04:32:12;;;;;;;62.83;31.13;;;;;;;0.68;100.00;101590.03;4893732;29;20052;-79
2023/02/16 04:34:41;;;;;;;53.10;24.63;;;;;;;0.73;100.00;101587.66;4864065;29;20111;-81
2023/02/16 04:37:20;;;;;;;45.13;24.20;;;;;;;0.73;100.00;101590.22;4881717;29;20195;-78
2023/02/16 04:39:52;;;;;;;52.20;25.80;;;;;;;0.78;100.00;101588.75;4895537;29;20556;-81
2023/02/16 04:42:27;;;;;;;44.65;23.70;;;;;;;0.78;100.00;101587.06;4888323;29;20075;-82
2023/02/16 04:44:54;;;;;;;43.20;23.60;;;;;;;0.78;100.00;101583.59;4882600;29;20050;-80
2023/02/16 04:47:34;;;;;;;45.45;23.77;;;;;;;0.75;100.00;101576.59;4879286;29;20059;-82
2023/02/16 04:50:05;;;;;;;41.88;24.40;;;;;;;0.76;100.00;101580.09;4878989;29;20048;-83
2023/02/16 04:52:36;;;;;;;44.22;23.58;;;;;;;0.76;100.00;101577.50;4879477;29;20044;-85
2023/02/16 04:55:06;;;;;;;48.17;24.08;;;;;;;0.78;100.00;101571.59;4880014;29;20047;-78
2023/02/16 05:00:01;;;;;;;44.17;24.08;;;;;;;0.81;100.00;101565.72;4925799;23;20523;-83
2023/02/16 05:02:37;;;;;;;46.25;23.08;;;;;;;0.80;100.00;101564.81;4909457;29;20083;-80
2023/02/16 05:05:22;;;;;;;46.97;24.02;;;;;;;0.79;100.00;101560.47;4919925;29;20097;-82
2023/02/16 05:07:49;;;;;;;39.70;22.67;;;;;;;0.80;100.00;101558.78;4908573;29;20055;-80
2023/02/16 05:10:22;;;;;;;44.65;24.92;;;;;;;0.81;100.00;101565.72;4917918;29;20512;-83
2023/02/16 05:15:35;;;;;;;40.55;22.45;;;;;;;0.80;100.00;101569.09;4908759;29;20048;-83
2023/02/16 05:18:01;;;;;;;43.58;22.52;;;;;;;0.79;100.00;101578.50;4915804;29;20058;-83
2023/02/16 05:23:08;;;;;;;48.17;22.55;;;;;;;0.69;100.00;101583.19;4899665;29;20051;-81
2023/02/16 05:25:35;;;;;;;44.47;23.40;;;;;;;0.68;100.00;101583.97;4897954;29;20058;-77
2023/02/16 05:28:01;;;;;;;44.60;22.20;;;;;;;0.69;100.00;101580.59;4915708;29;20557;-84
2023/02/16 05:30:28;;;;;;;49.85;24.65;;;;;;;0.69;100.00;101583.19;4899211;29;20193;-80
2023/02/16 05:32:54;;;;;;;50.33;27.23;;;;;;;0.74;100.00;101580.00;4908951;29;20044;-82
2023/02/16 05:35:21;;;;;;;45.97;23.85;;;;;;;0.80;100.00;101575.13;4902212;29;20063;-80
2023/02/16 05:37:47;;;;;;;53.13;25.58;;;;;;;0.90;100.00;101583.28;4903716;29;20031;-81
2023/02/16 05:40:14;;;;;;;38.67;21.85;;;;;;;0.95;100.00;101579.22;4916583;29;20055;-79
2023/02/16 05:42:40;;;;;;;44.08;23.50;;;;;;;0.98;100.00;101576.78;4908768;29;20040;-80
2023/02/16 05:45:07;;;;;;;44.70;21.88;;;;;;;0.99;100.00;101576.84;4910660;29;20052;-82
2023/02/16 05:47:34;;;;;;;44.28;23.15;;;;;;;1.01;100.00;101579.50;4905370;29;20048;-82
2023/02/16 05:50:01;;;;;;;51.42;24.25;;;;;;;1.00;100.00;101588.03;4902724;29;20047;-77
2023/02/16 05:52:27;;;;;;;44.35;23.55;;;;;;;1.04;100.00;101583.91;4905215;29;20040;-80
2023/02/16 05:54:54;;;;;;;46.00;24.90;;;;;;;1.04;100.00;101578.75;4925134;29;20036;-85
2023/02/16 05:57:20;;;;;;;53.10;26.67;;;;;;;1.06;100.00;101583.16;4920969;29;20812;-79
2023/02/16 05:59:47;;;;;;;48.63;23.90;;;;;;;1.08;100.00;101589.28;4906658;29;20074;-79
2023/02/16 06:02:20;;;;;;;40.17;21.90;;;;;;;1.06;100.00;101584.88;4906018;29;20048;-78
2023/02/16 06:04:46;;;;;;;38.83;22.15;;;;;;;1.01;100.00;101594.97;4907087;29;20043;-79
2023/02/16 06:07:13;;;;;;;42.70;23.73;;;;;;;0.99;100.00;101591.41;4901671;29;20055;-78
2023/02/16 06:09:39;;;;;;;44.85;23.27;;;;;;;0.98;100.00;101598.28;4905049;29;20115;-80
2023/02/16 06:12:06;;;;;;;48.38;24.80;;;;;;;0.93;100.00;101596.31;4908616;29;20051;-87
2023/02/16 06:14:33;;;;;;;45.22;23.35;;;;;;;0.96;100.00;101599.03;4921267;28;20126;-83
2023/02/16 06:17:00;;;;;;;43.63;25.40;;;;;;;0.94;100.00;101600.63;4909854;29;20051;-78
2023/02/16 06:19:26;;;;;;;50.25;23.42;;;;;;;0.92;100.00;101599.72;4917647;29;20047;-77
2023/02/16 06:21:53;;;;;;;42.70;25.52;;;;;;;0.93;100.00;101594.63;4905959;29;20055;-79
2023/02/16 06:24:19;;;;;;;62.55;27.73;;;;;;;0.95;100.00;101593.00;4905456;29;20048;-81
2023/02/16 06:26:46;;;;;;;52.83;26.00;;;;;;;0.97;100.00;101585.31;4906568;29;20114;-80
2023/02/16 06:29:12;;;;;;;49.25;26.00;;;;;;;0.98;100.00;101585.38;4908466;29;20048;-80
2023/02/16 06:31:39;;;;;;;45.80;24.48;;;;;;;1.01;100.00;101570.88;4895268;29;20130;-80
2023/02/16 06:34:05;;;;;;;47.38;26.48;;;;;;;1.02;100.00;101576.09;4908873;29;20439;-86
2023/02/16 06:36:33;;;;;;;46.38;25.20;;;;;;;1.01;100.00;101576.03;4924465;29;20163;-79
2023/02/16 06:39:02;;;;;;;50.35;24.95;;;;;;;1.02;100.00;101578.69;4923789;29;20066;-77
2023/02/16 06:41:34;;;;;;;44.38;23.17;;;;;;;1.02;100.00;101590.69;4910187;29;20043;-81
2023/02/16 06:44:10;;;;;;;50.88;25.05;;;;;;;0.98;100.00;101598.28;4924027;29;20043;-81
2023/02/16 06:46:37;;;;;;;38.33;21.73;;;;;;;0.98;100.00;101600.00;4908371;29;20132;-86
2023/02/16 06:49:07;;;;;;;47.10;23.73;;;;;;;0.97;100.00;101599.09;4902125;29;20048;-79
2023/02/16 06:51:33;;;;;;;39.72;22.70;;;;;;;1.02;100.00;101598.41;4906499;29;20116;-87
2023/02/16 06:54:10;;;;;;;48.25;24.27;;;;;;;1.00;100.00;101598.34;4909779;29;20366;-79
2023/02/16 06:56:37;;;;;;;42.75;24.15;;;;;;;1.02;100.00;101601.00;4900999;29;20071;-81
2023/02/16 06:59:07;;;;;;;52.28;26.40;;;;;;;1.01;100.00;101599.25;4903929;29;20122;-79
2023/02/16 07:01:49;;;;;;;45.78;22.55;;;;;;;1.04;100.00;101600.25;4903079;29;20048;-80
2023/02/16 07:04:17;;;;;;;45.03;24.38;;;;;;;1.07;100.00;101594.34;4906988;29;20115;-81
2023/02/16 07:06:52;;;;;;;45.08;24.13;;;;;;;1.11;100.00;101596.28;4911070;29;20567;-81
2023/02/16 07:09:34;;;;;;;48.35;26.50;;;;;;;1.20;100.00;101604.41;4915080;29;20138;-78
2023/02/16 07:12:09;;;;;;;47.42;25.38;;;;;;;1.27;100.00;101603.84;4912611;29;20040;-76
2023/02/16 07:14:41;;;;;;;54.33;24.63;;;;;;;1.39;100.00;101600.94;4924729;29;20048;-77
2023/02/16 07:17:11;;;;;;;50.47;25.20;;;;;;;1.45;100.00;101608.94;4910379;29;20499;-81
2023/02/16 07:19:46;;;;;;;48.25;25.83;;;;;;;1.52;100.00;101604.06;4909991;29;20047;-80
2023/02/16 07:22:12;;;;;;;41.90;22.88;;;;;;;1.56;100.00;101605.97;4896038;29;20040;-85
2023/02/16 07:24:39;;;;;;;40.63;24.02;;;;;;;1.61;100.00;101601.88;4911810;29;20051;-83
2023/02/16 07:27:07;;;;;;;49.00;25.65;;;;;;;1.62;100.00;101595.91;4908153;29;20050;-87
2023/02/16 07:29:34;;;;;;;45.40;23.70;;;;;;;1.68;100.00;101606.47;4910691;29;20365;-84
2023/02/16 07:32:01;;;;;;;45.67;22.40;;;;;;;1.69;100.00;101597.91;4891018;29;20054;-82
2023/02/16 07:34:27;;;;;;;41.38;23.60;;;;;;;1.73;100.00;101599.81;4910319;29;20439;-83
2023/02/16 07:36:54;;;;;;;44.15;24.75;;;;;;;1.78;100.00;101602.59;4902464;29;20406;-76
2023/02/16 07:39:20;;;;;;;47.60;23.95;;;;;;;1.85;100.00;101601.16;4909922;29;20051;-78
2023/02/16 07:41:46;;;;;;;39.97;20.75;;;;;;;1.96;100.00;101602.50;4902762;29;20040;-83
2023/02/16 07:44:13;;;;;;;49.22;26.60;;;;;;;2.02;100.00;101600.16;4904854;29;20044;-81
2023/02/16 07:46:39;;;;;;;46.55;24.33;;;;;;;2.11;100.00;101609.97;4917476;29;20055;-82
2023/02/16 07:49:06;;;;;;;36.30;22.13;;;;;;;2.16;100.00;101616.22;4908393;29;20032;-81
2023/02/16 07:51:32;;;;;;;43.83;23.45;;;;;;;2.24;100.00;101608.78;4905132;29;20058;-79
2023/02/16 07:54:00;;;;;;;39.45;20.98;;;;;;;2.35;100.00;101609.19;4905833;29;20054;-78
2023/02/16 07:56:30;;;;;;;42.53;21.20;;;;;;;2.46;100.00;101608.84;4906415;29;20095;-85
2023/02/16 07:59:00;;;;;;;41.00;21.90;;;;;;;2.57;100.00;101610.94;4906071;29;20533;-79
2023/02/16 08:01:28;;;;;;;38.92;20.98;;;;;;;2.65;100.00;101609.53;4921871;29;20103;-83
2023/02/16 08:03:55;;;;;;;38.55;21.55;;;;;;;2.72;100.00;101608.94;4918701;29;20044;-78
2023/02/16 08:06:22;;;;;;;38.70;20.00;;;;;;;2.77;100.00;101610.00;4907754;29;20047;-88
2023/02/16 08:08:48;;;;;;;36.90;20.58;;;;;;;2.83;100.00;101606.78;4909608;29;20046;-80
2023/02/16 08:11:19;;;;;;;40.53;21.23;;;;;;;2.86;100.00;101611.19;4902046;29;20127;-83
2023/02/16 08:13:46;;;;;;;34.75;20.13;;;;;;;2.90;100.00;101615.66;4925007;29;20047;-82
2023/02/16 08:16:16;;;;;;;42.20;22.58;;;;;;;2.96;100.00;101616.78;4907410;29;20474;-77
2023/02/16 08:18:44;;;;;;;37.13;20.83;;;;;;;3.05;100.00;101618.84;4907066;29;20432;-84
2023/02/16 08:21:23;;;;;;;34.65;20.08;;;;;;;3.12;100.00;101625.97;4901672;29;20036;-78
2023/02/16 08:24:06;;;;;;;35.33;19.85;;;;;;;3.24;100.00;101614.31;4921071;29;20550;-77
2023/02/16 08:26:40;;;;;;;43.05;22.00;;;;;;;3.37;100.00;101618.25;4902699;29;20047;-84
2023/02/16 08:29:11;;;;;;;35.95;19.25;;;;;;;3.49;100.00;101610.91;4904577;29;20037;-82
2023/02/16 08:31:38;;;;;;;35.80;19.42;;;;;;;3.63;100.00;101607.09;4888935;29;20047;-80
2023/02/16 08:34:55;;;;;;;35.28;19.35;;;;;;;3.85;100.00;101607.84;4907106;29;20387;-80
2023/02/16 08:37:21;;;;;;;32.53;19.02;;;;;;;4.18;99.46;101593.38;4919682;28;20676;-81
2023/02/16 08:39:48;;;;;;;38.47;20.48;;;;;;;4.50;98.80;101598.69;4903600;29;20498;-79
2023/02/16 08:42:14;;;;;;;39.00;19.80;;;;;;;4.82;97.38;101601.38;4902730;29;20075;-81
2023/02/16 08:44:41;;;;;;;35.55;19.35;;;;;;;5.16;94.64;101590.25;4906680;29;20044;-79
2023/02/16 08:47:09;;;;;;;33.72;18.52;;;;;;;5.49;91.33;101594.66;4904740;29;20050;-80
2023/02/16 08:49:37;;;;;;;39.83;19.30;;;;;;;5.77;88.61;101590.19;4889100;29;20513;-81
2023/02/16 08:52:04;;;;;;;33.15;17.80;;;;;;;6.06;89.90;101590.06;4898087;29;20139;-78
2023/02/16 08:54:33;;;;;;;32.10;18.17;;;;;;;6.28;88.15;101581.97;4902203;29;20126;-82
2023/02/16 08:57:02;;;;;;;32.53;19.08;;;;;;;6.46;86.45;101575.41;4919187;29;20126;-83
2023/02/16 08:59:29;;;;;;;34.20;18.42;;;;;;;6.56;84.87;101569.56;4901348;29;20064;-78
2023/02/16 09:01:58;;;;;;;26.88;17.23;;;;;;;6.68;85.62;101576.78;4903111;29;20451;-83
2023/02/16 09:04:25;;;;;;;27.15;17.70;;;;;;;6.75;84.20;101570.88;4904043;29;20749;-84
2023/02/16 09:06:52;;;;;;;31.55;18.23;;;;;;;6.66;82.78;101572.38;4901759;29;20066;-81
2023/02/16 09:09:19;;;;;;;31.80;17.63;;;;;;;6.66;83.41;101580.19;4902725;29;20060;-84
2023/02/16 09:11:46;;;;;;;32.05;17.98;;;;;;;6.69;84.25;101581.13;4903702;29;20040;-79
2023/02/16 09:14:13;;;;;;;33.80;18.85;;;;;;;6.71;84.72;101584.63;4901163;29;20488;-82
2023/02/16 09:16:44;;;;;;;34.28;18.63;;;;;;;6.69;83.92;101583.75;4905501;29;20041;-81
2023/02/16 09:19:13;;;;;;;29.10;19.83;;;;;;;6.72;84.09;101585.53;4923858;29;20047;-82
2023/02/16 09:21:41;;;;;;;29.15;17.25;;;;;;;6.75;83.60;101582.97;4904547;29;20067;-79
2023/02/16 09:24:10;;;;;;;30.20;18.60;;;;;;;6.82;82.26;101582.28;4885190;29;20055;-79
2023/02/16 09:26:41;;;;;;;30.92;20.45;;;;;;;6.87;83.60;101579.75;4904013;29;20052;-80
2023/02/16 09:29:11;;;;;;;32.22;18.63;;;;;;;6.91;82.30;101589.38;4920665;29;20104;-80
2023/02/16 09:31:38;;;;;;;27.60;18.00;;;;;;;6.95;82.22;101592.09;4892198;29;20058;-83
2023/02/16 09:34:26;;;;;;;29.52;18.52;;;;;;;7.02;80.67;101584.44;4901048;29;20095;-81
2023/02/16 09:36:52;;;;;;;34.67;19.38;;;;;;;7.03;80.96;101581.84;4904845;29;20108;-80
2023/02/16 09:39:20;;;;;;;31.27;18.13;;;;;;;7.06;80.48;101594.91;4903974;29;20130;-82
2023/02/16 09:42:11;;;;;;;36.13;18.60;;;;;;;7.10;78.54;101595.88;4889198;29;20056;-77
2023/02/16 09:45:06;;;;;;;28.95;17.80;;;;;;;7.13;79.06;101590.72;4907267;29;20045;-82
2023/02/16 09:47:38;;;;;;;29.60;17.08;;;;;;;7.12;78.12;101589.84;4903063;29;20828;-82
2023/02/16 09:50:22;;;;;;;26.58;17.20;;;;;;;7.14;79.51;101599.41;4901454;29;20048;-81
2023/02/16 09:52:59;;;;;;;32.88;18.05;;;;;;;7.11;78.86;101602.84;4901740;29;20040;-77
2023/02/16 09:55:34;;;;;;;35.13;17.88;;;;;;;7.08;79.66;101603.66;4903944;29;20051;-77
2023/02/16 09:58:14;;;;;;;27.73;17.17;;;;;;;7.10;79.52;101601.97;4900140;29;20044;-78
2023/02/16 10:00:51;;;;;;;32.08;17.20;;;;;;;7.14;78.31;101604.63;4904486;29;20132;-80
2023/02/16 10:03:32;;;;;;;30.10;18.50;;;;;;;7.16;79.01;101598.59;4896764;29;20048;-79
2023/02/16 10:06:09;;;;;;;29.92;17.48;;;;;;;7.20;79.11;101608.22;4907384;29;20040;-77
2023/02/16 10:08:49;;;;;;;28.15;17.67;;;;;;;7.26;79.39;101597.03;4902901;29;20127;-80
2023/02/16 10:12:02;;;;;;;27.38;17.42;;;;;;;7.24;78.14;101604.84;4901332;29;20047;-78
2023/02/16 10:14:40;;;;;;;30.25;16.73;;;;;;;7.25;79.24;101606.59;4891088;29;20047;-82
2023/02/16 10:17:37;;;;;;;29.33;17.05;;;;;;;7.23;78.56;101613.50;4899650;29;20072;-79
2023/02/16 10:20:15;;;;;;;28.35;16.25;;;;;;;7.24;79.00;101612.66;4902773;29;20748;-78
2023/02/16 10:23:02;;;;;;;30.67;17.77;;;;;;;7.29;78.45;101594.53;4901205;29;20039;-80
2023/02/16 10:25:46;;;;;;;32.65;18.10;;;;;;;7.37;78.79;101589.47;4908260;29;20056;-76
2023/02/16 10:28:23;;;;;;;35.67;18.67;;;;;;;7.48;77.90;101582.72;4903265;29;20690;-78
2023/02/16 10:31:06;;;;;;;30.95;18.35;;;;;;;7.64;77.28;101586.50;4907581;29;20173;-77
2023/02/16 10:34:18;;;;;;;27.20;17.13;;;;;;;7.82;77.17;101582.44;4904638;29;20048;-83
2023/02/16 10:37:33;;;;;;;29.48;18.17;;;;;;;7.99;74.38;101582.75;4898741;29;20068;-78
2023/02/16 10:40:12;;;;;;;28.55;16.80;;;;;;;8.03;74.98;101584.53;4908237;29;20040;-78
2023/02/16 10:42:46;;;;;;;30.83;16.90;;;;;;;8.18;75.26;101579.56;4902301;29;20080;-80
2023/02/16 10:45:30;;;;;;;31.73;18.27;;;;;;;8.31;72.91;101592.81;4908091;29;20140;-79
2023/02/16 10:47:57;;;;;;;;;;;;;;;8.50;71.84;101596.59;4905031;29;20127;-85
2023/02/16 10:50:40;;;;;;;29.17;17.20;;;;;;;8.70;72.77;101600.38;4901310;29;19930;-81
2023/02/16 10:53:19;;;;;;;28.65;17.95;;;;;;;8.75;71.39;101603.06;4896769;29;20483;-80
2023/02/16 10:55:46;;;;;;;30.20;17.75;;;;;;;8.68;70.48;101601.22;4902035;29;20047;-79
2023/02/16 10:58:22;;;;;;;31.92;18.08;;;;;;;8.46;71.16;101592.19;4906496;29;20600;-81
2023/02/16 11:01:57;;;;;;;27.27;16.75;;;;;;;8.24;71.88;101610.13;4891186;29;20056;-81
2023/02/16 11:04:40;;;;;;;31.15;17.65;;;;;;;8.15;72.75;101603.00;4825537;29;20100;-81
2023/02/16 11:07:19;;;;;;;29.45;17.67;;;;;;;8.21;72.75;101602.22;4896335;29;20578;-83
2023/02/16 11:09:51;;;;;;;27.25;18.20;;;;;;;8.33;73.15;101594.59;4884509;29;20182;-79
2023/02/16 11:12:25;;;;;;;31.67;19.77;;;;;;;8.43;71.55;101598.22;4902785;29;20067;-82
2023/02/16 11:15:22;;;;;;;30.90;18.33;;;;;;;8.36;72.06;101601.59;4898548;29;20487;-79
2023/02/16 11:17:57;;;;;;;34.38;19.00;;;;;;;8.34;72.23;101601.56;4912535;29;20091;-77
2023/02/16 11:20:43;;;;;;;41.10;18.88;;;;;;;8.31;72.96;101592.81;4905272;29;20387;-82
2023/02/16 11:23:31;;;;;;;32.13;20.00;;;;;;;8.38;73.13;101594.66;4902386;29;20048;-80
2023/02/16 11:26:04;;;;;;;32.60;19.02;;;;;;;8.42;73.33;101592.13;4915609;29;20520;-81
2023/02/16 11:28:46;;;;;;;34.33;19.33;;;;;;;8.51;72.72;101586.19;4898026;29;20487;-78
2023/02/16 11:31:34;;;;;;;32.20;19.00;;;;;;;8.60;72.45;101582.84;4906527;29;20143;-79
2023/02/16 11:34:03;;;;;;;34.75;17.98;;;;;;;8.68;72.20;101580.34;4904826;29;20056;-80
2023/02/16 11:36:39;;;;;;;64.82;22.17;;;;;;;8.75;71.45;101585.66;4899242;29;20050;-79
2023/02/16 11:39:24;;;;;;;44.17;20.83;;;;;;;8.90;70.33;101569.34;4904807;29;20499;-86
2023/02/16 11:41:56;;;;;;;27.38;17.88;;;;;;;8.84;70.53;101569.25;4902987;29;20658;-79
2023/02/16 11:44:34;;;;;;;36.70;18.83;;;;;;;8.71;70.05;101573.44;4905734;29;20099;-83
2023/02/16 11:47:09;;;;;;;25.30;17.55;;;;;;;8.52;71.20;101574.03;4900655;29;20055;-85
2023/02/16 11:49:41;;;;;;;29.65;17.80;;;;;;;8.45;71.70;101573.03;4900040;29;20064;-79
2023/02/16 11:52:31;;;;;;;28.15;17.33;;;;;;;8.39;71.43;101579.03;4902676;29;20494;-77
2023/02/16 11:55:00;;;;;;;30.48;17.60;;;;;;;8.31;71.65;101579.78;4897985;29;20167;-79
2023/02/16 11:57:36;;;;;;;28.70;16.08;;;;;;;8.22;71.95;101583.97;4888304;29;20052;-77
2023/02/16 12:00:17;;;;;;;26.40;17.95;;;;;;;8.18;71.79;101581.31;4920585;29;20151;-81
2023/02/16 12:03:21;;;;;;;28.48;17.98;;;;;;;8.11;72.38;101582.97;4902659;29;20135;-79
2023/02/16 12:05:58;;;;;;;32.10;16.38;;;;;;;8.05;72.99;101578.50;4925784;29;20099;-84
2023/02/16 12:08:37;;;;;;;31.60;17.85;;;;;;;8.07;73.02;101581.13;4909104;29;20044;-80
2023/02/16 12:11:26;;;;;;;33.45;16.73;;;;;;;8.09;72.65;101572.47;4928733;29;20036;-80
2023/02/16 12:14:29;;;;;;;26.88;16.42;;;;;;;8.24;72.37;101574.47;4907811;29;20134;-79
2023/02/16 12:17:30;;;;;;;30.70;17.88;;;;;;;8.42;71.88;101571.25;4928181;29;20070;-77
2023/02/16 12:20:22;;;;;;;36.70;17.42;;;;;;;8.44;71.56;101574.75;4909679;29;20051;-84
2023/02/16 12:22:52;;;;;;;25.65;16.73;;;;;;;8.52;71.40;101567.06;4921766;29;20125;-80
2023/02/16 12:25:30;;;;;;;33.65;17.38;;;;;;;8.57;71.63;101569.75;4907304;29;20062;-82
2023/02/16 12:28:20;;;;;;;30.75;18.65;;;;;;;8.66;70.84;101562.06;4914947;29;20040;-77
2023/02/16 12:31:22;;;;;;;29.80;15.30;;;;;;;8.71;70.43;101555.16;4922835;29;20055;-78
2023/02/16 12:34:27;;;;;;;31.35;16.23;;;;;;;8.57;70.72;101557.56;4907928;29;20044;-77
2023/02/16 12:37:17;;;;;;;23.70;16.20;;;;;;;8.54;71.68;101554.94;4909524;29;20055;-77